»·PEaware :: N1348A KMHV-KHWD

N1348A :: KMHV-KHWD

FLIGHT INFORMATION

Flight Status: Arrived
Operator: Privately registered:
United States
More flights under this callsign
Pilot: Max H. (24278)
Aircraft: CESSNA 510 CITATION MUSTANG
(C510)
More flights by this aircraft type
Origin: KMHV Mojave
United States
Destination: KHWD Hayward Executive
United States
More flights between these airports :: More routes between these airports
Route: JERID5 JERID PXN PXN6
File this flight plan on PilotEdge
Remarks:
Altitude:
(Current/Filed)
36,000ft
Speed:
(Current/Filed)
250kts
Departed: 14-Sep-19 03:51 PM
Arrived: 14-Sep-19 04:45 PM
Distance/Time
Traveled:
247nm/0:54
Distance/Time
To Go:
Arrived

Flight Plot

Page will automatically refresh every two minutes.

Flight plan parsing failed; only flown route is shown


Map Options




Map Legend


Flown Route
Filed Route
Departure Airport
Arrival Airport
Navaid (VOR, NDB)
Fix

Horizontal Profiles

Position Reports

Time Latitude Longitude Heading Altitude Ground
Speed
14-Sep-19 15:32 35.056771 -118.154348 180 2770ft 0kts
14-Sep-19 15:33 35.056771 -118.154348 180 2770ft 0kts
14-Sep-19 15:34 35.056771 -118.154348 180 2770ft 0kts
14-Sep-19 15:35 35.056771 -118.154348 180 2770ft 0kts
14-Sep-19 15:36 35.056771 -118.154348 180 2770ft 0kts
14-Sep-19 15:37 35.056771 -118.154348 180 2770ft 0kts
14-Sep-19 15:38 35.056771 -118.154348 180 2770ft 0kts
14-Sep-19 15:39 35.056771 -118.154348 180 2770ft 0kts
14-Sep-19 15:40 35.056771 -118.154348 180 2770ft 0kts
14-Sep-19 15:41 35.056771 -118.154348 180 2770ft 0kts
14-Sep-19 15:42 35.056747 -118.154392 269 2770ft 1kts
14-Sep-19 15:43 35.056980 -118.154475 357 2770ft 0kts
14-Sep-19 15:44 35.057049 -118.154478 357 2770ft 0kts
14-Sep-19 15:45 35.057593 -118.152171 86 2770ft 19kts
14-Sep-19 15:46 35.057581 -118.148193 91 2770ft 7kts
14-Sep-19 15:47 35.058013 -118.142645 3 2770ft 9kts
14-Sep-19 15:48 35.058172 -118.142632 3 2770ft 0kts
14-Sep-19 15:49 35.059173 -118.143293 269 2770ft 24kts
14-Sep-19 15:50 35.057802 -118.185630 246 3797ft 195kts
14-Sep-19 15:51 35.009450 -118.238355 221 6160ft 266kts
14-Sep-19 15:52 34.950503 -118.299275 220 8367ft 278kts
14-Sep-19 15:53 34.892115 -118.361471 237 10551ft 281kts
14-Sep-19 15:54 34.921497 -118.440023 315 12803ft 292kts
14-Sep-19 15:55 34.980579 -118.513891 313 15051ft 311kts
14-Sep-19 15:56 35.041191 -118.590483 312 17272ft 316kts
14-Sep-19 15:57 35.100640 -118.665956 311 19425ft 316kts
14-Sep-19 15:58 35.161366 -118.743053 311 21620ft 314kts
14-Sep-19 15:59 35.221634 -118.819701 311 23808ft 311kts
14-Sep-19 16:00 35.281745 -118.896376 311 25710ft 314kts
14-Sep-19 16:01 35.342029 -118.973414 311 27606ft 313kts
14-Sep-19 16:02 35.401921 -119.050096 311 29496ft 311kts
14-Sep-19 16:03 35.460933 -119.125825 311 31375ft 306kts
14-Sep-19 16:04 35.519209 -119.200802 310 33256ft 301kts
14-Sep-19 16:05 35.576564 -119.274783 310 35007ft 298kts
14-Sep-19 16:06 35.635469 -119.351016 310 35993ft 319kts
14-Sep-19 16:07 35.700926 -119.435957 311 35987ft 359kts
14-Sep-19 16:08 35.772185 -119.528455 311 35984ft 382kts
14-Sep-19 16:09 35.846505 -119.625234 311 35988ft 392kts
14-Sep-19 16:10 35.921073 -119.722587 310 36002ft 393kts
14-Sep-19 16:11 35.996354 -119.821216 311 36001ft 395kts
14-Sep-19 16:12 36.071685 -119.920262 311 35972ft 395kts
14-Sep-19 16:13 36.146767 -120.019207 311 35972ft 396kts
14-Sep-19 16:14 36.222086 -120.118772 311 35972ft 396kts
14-Sep-19 16:15 36.297269 -120.218475 311 35971ft 396kts
14-Sep-19 16:16 36.372367 -120.318371 311 35971ft 396kts
14-Sep-19 16:17 36.447425 -120.418529 311 35970ft 396kts
14-Sep-19 16:18 36.522191 -120.518604 311 35971ft 396kts
14-Sep-19 16:19 36.597035 -120.619066 311 35969ft 396kts
14-Sep-19 16:20 36.672705 -120.721029 310 34811ft 410kts
14-Sep-19 16:21 36.751312 -120.819634 315 30547ft 391kts
14-Sep-19 16:22 36.825714 -120.904636 315 26522ft 341kts
14-Sep-19 16:23 36.891782 -120.980405 315 21846ft 310kts
14-Sep-19 16:24 36.952003 -121.049448 315 17647ft 288kts
14-Sep-19 16:25 37.009371 -121.115413 315 13442ft 278kts
14-Sep-19 16:26 37.064363 -121.178690 314 9968ft 254kts
14-Sep-19 16:27 37.117952 -121.240698 314 9982ft 280kts
14-Sep-19 16:28 37.176180 -121.308423 314 9968ft 286kts
14-Sep-19 16:29 37.234063 -121.375626 314 9970ft 277kts
14-Sep-19 16:30 37.289409 -121.439981 314 9986ft 269kts
14-Sep-19 16:31 37.344591 -121.504365 314 9438ft 274kts
14-Sep-19 16:32 37.401588 -121.571077 315 7883ft 286kts
14-Sep-19 16:33 37.457985 -121.636930 315 6066ft 264kts
14-Sep-19 16:34 37.510034 -121.697911 314 4987ft 253kts
14-Sep-19 16:35 37.559835 -121.760640 293 4962ft 252kts
14-Sep-19 16:36 37.588381 -121.841592 292 4992ft 250kts
14-Sep-19 16:37 37.620902 -121.919520 298 4640ft 240kts
14-Sep-19 16:38 37.649996 -121.986868 294 4146ft 219kts
14-Sep-19 16:39 37.674827 -122.057761 290 3115ft 220kts
14-Sep-19 16:40 37.695999 -122.126261 293 1988ft 187kts
14-Sep-19 16:41 37.712182 -122.177053 269 748ft 105kts
14-Sep-19 16:42 37.684508 -122.163921 142 746ft 140kts
14-Sep-19 16:43 37.663383 -122.132797 120 174ft 112kts
14-Sep-19 16:44 37.655382 -122.115177 114 43ft 8kts
14-Sep-19 16:45 37.655800 -122.114420 30 43ft 0kts
14-Sep-19 16:46 37.655800 -122.114420 30 43ft 0kts
14-Sep-19 16:47 37.656152 -122.114422 1 43ft 11kts
14-Sep-19 16:48 37.656240 -122.114314 71 43ft 0kts
14-Sep-19 16:49 37.656240 -122.114314 71 43ft 0kts

Navigation Log

Ident Type
Flight plan parsing failed, navigation log unavailable